Аэропорт: Нальчик. Нальчик

ICAO: URMN

METAR:
2022-06-26 11:00:00
URMN 261100Z 02001MPS 9999 BKN007 BKN022CB 19/16 Q1009 R24/210155 TEMPO 1500 SHRA BKN003 BKN015CB RMK MT OBSC QFE720
METAR:
2022-06-26 08:00:00
TAF URMN 260800Z 2609/2618 08003G08MPS 9999 BKN020CB TEMPO 2609/2618 2100 -SHRA BR FEW004 BKN016CB